sensor_id;sensor_type;location;lat;lon;timestamp;P1;P2;P0
80692;PMS5003;70055;39.436;-77.514;2023-06-24T00:02:14;10;10;
80692;PMS5003;70055;39.436;-77.514;2023-06-24T00:04:42;9;9;
80692;PMS5003;70055;39.436;-77.514;2023-06-24T00:07:09;8;8;
80692;PMS5003;70055;39.436;-77.514;2023-06-24T00:09:37;9;9;
80692;PMS5003;70055;39.436;-77.514;2023-06-24T00:12:05;10;10;
80692;PMS5003;70055;39.436;-77.514;2023-06-24T00:14:36;8;8;
80692;PMS5003;70055;39.436;-77.514;2023-06-24T00:17:05;8;8;
80692;PMS5003;70055;39.436;-77.514;2023-06-24T00:24:06;10;10;
80692;PMS5003;70055;39.436;-77.514;2023-06-24T00:26:35;9;9;
80692;PMS5003;70055;39.436;-77.514;2023-06-24T00:29:03;10;10;
80692;PMS5003;70055;39.436;-77.514;2023-06-24T00:31:31;9;9;
80692;PMS5003;70055;39.436;-77.514;2023-06-24T00:34:00;11;11;
80692;PMS5003;70055;39.436;-77.514;2023-06-24T00:36:28;11;10;
80692;PMS5003;70055;39.436;-77.514;2023-06-24T00:38:58;12;12;
80692;PMS5003;70055;39.436;-77.514;2023-06-24T00:41:26;12;12;
80692;PMS5003;70055;39.436;-77.514;2023-06-24T00:43:54;10;10;
80692;PMS5003;70055;39.436;-77.514;2023-06-24T00:46:22;12;12;
80692;PMS5003;70055;39.436;-77.514;2023-06-24T00:48:50;9;9;
80692;PMS5003;70055;39.436;-77.514;2023-06-24T00:51:19;9;9;
80692;PMS5003;70055;39.436;-77.514;2023-06-24T00:53:48;10;10;
80692;PMS5003;70055;39.436;-77.514;2023-06-24T00:56:17;12;11;
80692;PMS5003;70055;39.436;-77.514;2023-06-24T00:58:46;13;12;
80692;PMS5003;70055;39.436;-77.514;2023-06-24T01:01:15;13;13;
80692;PMS5003;70055;39.436;-77.514;2023-06-24T01:03:44;18;16;
80692;PMS5003;70055;39.436;-77.514;2023-06-24T01:06:13;15;14;
80692;PMS5003;70055;39.436;-77.514;2023-06-24T01:08:43;14;14;
80692;PMS5003;70055;39.436;-77.514;2023-06-24T01:11:12;11;11;
80692;PMS5003;70055;39.436;-77.514;2023-06-24T01:13:40;12;10;
80692;PMS5003;70055;39.436;-77.514;2023-06-24T01:16:10;14;13;
80692;PMS5003;70055;39.436;-77.514;2023-06-24T01:18:45;15;15;
80692;PMS5003;70055;39.436;-77.514;2023-06-24T01:21:19;16;16;
80692;PMS5003;70055;39.436;-77.514;2023-06-24T01:30:54;12;12;
80692;PMS5003;70055;39.436;-77.514;2023-06-24T01:33:39;12;12;
80692;PMS5003;70055;39.436;-77.514;2023-06-24T01:36:13;11;11;
80692;PMS5003;70055;39.436;-77.514;2023-06-24T01:38:45;10;9;
80692;PMS5003;70055;39.436;-77.514;2023-06-24T01:41:18;12;11;
80692;PMS5003;70055;39.436;-77.514;2023-06-24T01:43:49;10;10;
80692;PMS5003;70055;39.436;-77.514;2023-06-24T01:46:19;9;9;
80692;PMS5003;70055;39.436;-77.514;2023-06-24T01:48:50;11;10;
80692;PMS5003;70055;39.436;-77.514;2023-06-24T01:51:22;12;11;
80692;PMS5003;70055;39.436;-77.514;2023-06-24T01:53:53;8;8;
80692;PMS5003;70055;39.436;-77.514;2023-06-24T01:56:27;9;9;
80692;PMS5003;70055;39.436;-77.514;2023-06-24T01:58:57;8;8;
80692;PMS5003;70055;39.436;-77.514;2023-06-24T02:01:29;9;9;
80692;PMS5003;70055;39.436;-77.514;2023-06-24T02:03:59;10;10;
80692;PMS5003;70055;39.436;-77.514;2023-06-24T02:06:30;11;11;
80692;PMS5003;70055;39.436;-77.514;2023-06-24T02:08:59;11;10;
80692;PMS5003;70055;39.436;-77.514;2023-06-24T02:11:30;8;8;
80692;PMS5003;70055;39.436;-77.514;2023-06-24T02:14:00;12;12;
80692;PMS5003;70055;39.436;-77.514;2023-06-24T02:16:31;10;10;
80692;PMS5003;70055;39.436;-77.514;2023-06-24T02:19:01;11;9;
80692;PMS5003;70055;39.436;-77.514;2023-06-24T02:21:31;8;8;
80692;PMS5003;70055;39.436;-77.514;2023-06-24T02:24:00;7;7;
80692;PMS5003;70055;39.436;-77.514;2023-06-24T02:26:30;8;8;
80692;PMS5003;70055;39.436;-77.514;2023-06-24T02:28:59;9;9;
80692;PMS5003;70055;39.436;-77.514;2023-06-24T02:31:28;10;10;
80692;PMS5003;70055;39.436;-77.514;2023-06-24T02:33:56;9;9;
80692;PMS5003;70055;39.436;-77.514;2023-06-24T02:36:24;11;10;
80692;PMS5003;70055;39.436;-77.514;2023-06-24T02:38:51;9;9;
80692;PMS5003;70055;39.436;-77.514;2023-06-24T02:41:19;11;11;
80692;PMS5003;70055;39.436;-77.514;2023-06-24T02:43:47;8;8;
80692;PMS5003;70055;39.436;-77.514;2023-06-24T02:46:15;6;6;
80692;PMS5003;70055;39.436;-77.514;2023-06-24T02:48:45;8;8;
80692;PMS5003;70055;39.436;-77.514;2023-06-24T02:51:14;8;8;
80692;PMS5003;70055;39.436;-77.514;2023-06-24T02:53:43;8;8;
80692;PMS5003;70055;39.436;-77.514;2023-06-24T02:56:14;7;7;
80692;PMS5003;70055;39.436;-77.514;2023-06-24T02:58:42;7;7;
80692;PMS5003;70055;39.436;-77.514;2023-06-24T03:01:11;8;8;
80692;PMS5003;70055;39.436;-77.514;2023-06-24T03:03:41;9;8;
80692;PMS5003;70055;39.436;-77.514;2023-06-24T03:06:09;11;11;
80692;PMS5003;70055;39.436;-77.514;2023-06-24T03:08:38;12;12;
80692;PMS5003;70055;39.436;-77.514;2023-06-24T03:11:06;11;11;
80692;PMS5003;70055;39.436;-77.514;2023-06-24T03:13:34;15;14;
80692;PMS5003;70055;39.436;-77.514;2023-06-24T03:16:02;14;14;
80692;PMS5003;70055;39.436;-77.514;2023-06-24T03:18:30;20;20;
80692;PMS5003;70055;39.436;-77.514;2023-06-24T03:20:58;21;21;
80692;PMS5003;70055;39.436;-77.514;2023-06-24T03:23:26;14;13;
80692;PMS5003;70055;39.436;-77.514;2023-06-24T03:25:55;13;12;
80692;PMS5003;70055;39.436;-77.514;2023-06-24T03:28:23;13;12;
80692;PMS5003;70055;39.436;-77.514;2023-06-24T03:30:50;12;12;
80692;PMS5003;70055;39.436;-77.514;2023-06-24T03:49:14;12;12;
80692;PMS5003;70055;39.436;-77.514;2023-06-24T03:51:42;17;16;
80692;PMS5003;70055;39.436;-77.514;2023-06-24T03:54:11;12;12;
80692;PMS5003;70055;39.436;-77.514;2023-06-24T03:56:39;11;10;
80692;PMS5003;70055;39.436;-77.514;2023-06-24T03:59:06;13;12;
80692;PMS5003;70055;39.436;-77.514;2023-06-24T04:01:34;16;15;
80692;PMS5003;70055;39.436;-77.514;2023-06-24T04:04:02;14;13;
80692;PMS5003;70055;39.436;-77.514;2023-06-24T04:06:31;10;10;
80692;PMS5003;70055;39.436;-77.514;2023-06-24T04:08:59;11;11;
80692;PMS5003;70055;39.436;-77.514;2023-06-24T04:11:27;10;10;
80692;PMS5003;70055;39.436;-77.514;2023-06-24T04:13:56;8;7;
80692;PMS5003;70055;39.436;-77.514;2023-06-24T04:16:24;10;9;
80692;PMS5003;70055;39.436;-77.514;2023-06-24T04:18:52;10;10;
80692;PMS5003;70055;39.436;-77.514;2023-06-24T04:21:19;10;9;
80692;PMS5003;70055;39.436;-77.514;2023-06-24T04:23:48;9;9;
80692;PMS5003;70055;39.436;-77.514;2023-06-24T04:26:16;9;8;
80692;PMS5003;70055;39.436;-77.514;2023-06-24T04:28:43;11;11;
80692;PMS5003;70055;39.436;-77.514;2023-06-24T04:31:11;9;9;
80692;PMS5003;70055;39.436;-77.514;2023-06-24T04:33:39;7;7;
80692;PMS5003;70055;39.436;-77.514;2023-06-24T04:36:06;8;8;
80692;PMS5003;70055;39.436;-77.514;2023-06-24T04:38:34;9;9;
80692;PMS5003;70055;39.436;-77.514;2023-06-24T04:41:02;9;9;
80692;PMS5003;70055;39.436;-77.514;2023-06-24T04:43:30;10;9;
80692;PMS5003;70055;39.436;-77.514;2023-06-24T04:45:58;8;8;
80692;PMS5003;70055;39.436;-77.514;2023-06-24T04:48:27;6;6;
80692;PMS5003;70055;39.436;-77.514;2023-06-24T04:55:27;8;7;
80692;PMS5003;70055;39.436;-77.514;2023-06-24T04:57:56;7;7;
80692;PMS5003;70055;39.436;-77.514;2023-06-24T05:00:24;7;7;
80692;PMS5003;70055;39.436;-77.514;2023-06-24T05:02:52;8;8;
80692;PMS5003;70055;39.436;-77.514;2023-06-24T05:05:20;6;6;
80692;PMS5003;70055;39.436;-77.514;2023-06-24T05:07:48;9;9;
80692;PMS5003;70055;39.436;-77.514;2023-06-24T05:10:16;10;10;
80692;PMS5003;70055;39.436;-77.514;2023-06-24T05:12:44;9;8;
80692;PMS5003;70055;39.436;-77.514;2023-06-24T05:15:12;6;6;
80692;PMS5003;70055;39.436;-77.514;2023-06-24T05:17:41;7;6;
80692;PMS5003;70055;39.436;-77.514;2023-06-24T05:20:10;9;9;
80692;PMS5003;70055;39.436;-77.514;2023-06-24T05:22:38;9;9;
80692;PMS5003;70055;39.436;-77.514;2023-06-24T05:25:07;4;4;
80692;PMS5003;70055;39.436;-77.514;2023-06-24T05:27:35;8;8;
80692;PMS5003;70055;39.436;-77.514;2023-06-24T05:30:04;8;7;
80692;PMS5003;70055;39.436;-77.514;2023-06-24T05:32:33;6;6;
80692;PMS5003;70055;39.436;-77.514;2023-06-24T05:35:01;6;6;
80692;PMS5003;70055;39.436;-77.514;2023-06-24T05:37:29;5;5;
80692;PMS5003;70055;39.436;-77.514;2023-06-24T05:39:57;8;7;
80692;PMS5003;70055;39.436;-77.514;2023-06-24T05:42:24;6;6;
80692;PMS5003;70055;39.436;-77.514;2023-06-24T05:44:52;8;8;
80692;PMS5003;70055;39.436;-77.514;2023-06-24T05:47:21;14;13;
80692;PMS5003;70055;39.436;-77.514;2023-06-24T05:49:48;15;15;
80692;PMS5003;70055;39.436;-77.514;2023-06-24T05:52:16;13;13;
80692;PMS5003;70055;39.436;-77.514;2023-06-24T05:54:45;17;17;
80692;PMS5003;70055;39.436;-77.514;2023-06-24T06:05:08;14;14;
80692;PMS5003;70055;39.436;-77.514;2023-06-24T06:07:36;13;13;
80692;PMS5003;70055;39.436;-77.514;2023-06-24T06:10:04;12;12;
80692;PMS5003;70055;39.436;-77.514;2023-06-24T06:12:33;10;10;
80692;PMS5003;70055;39.436;-77.514;2023-06-24T06:15:01;12;10;
80692;PMS5003;70055;39.436;-77.514;2023-06-24T06:17:29;9;9;
80692;PMS5003;70055;39.436;-77.514;2023-06-24T06:19:59;10;10;
80692;PMS5003;70055;39.436;-77.514;2023-06-24T06:22:27;7;7;
80692;PMS5003;70055;39.436;-77.514;2023-06-24T06:24:55;9;9;
80692;PMS5003;70055;39.436;-77.514;2023-06-24T06:27:23;12;12;
80692;PMS5003;70055;39.436;-77.514;2023-06-24T06:29:51;12;11;
80692;PMS5003;70055;39.436;-77.514;2023-06-24T06:32:18;9;9;
80692;PMS5003;70055;39.436;-77.514;2023-06-24T06:34:46;11;11;
80692;PMS5003;70055;39.436;-77.514;2023-06-24T06:37:14;9;9;
80692;PMS5003;70055;39.436;-77.514;2023-06-24T06:39:42;9;9;
80692;PMS5003;70055;39.436;-77.514;2023-06-24T06:42:09;8;8;
80692;PMS5003;70055;39.436;-77.514;2023-06-24T06:44:37;8;8;
80692;PMS5003;70055;39.436;-77.514;2023-06-24T06:47:05;8;7;
80692;PMS5003;70055;39.436;-77.514;2023-06-24T06:49:34;9;9;
80692;PMS5003;70055;39.436;-77.514;2023-06-24T06:52:01;8;7;
80692;PMS5003;70055;39.436;-77.514;2023-06-24T06:54:30;10;10;
80692;PMS5003;70055;39.436;-77.514;2023-06-24T06:57:00;9;9;
80692;PMS5003;70055;39.436;-77.514;2023-06-24T06:59:28;8;8;
80692;PMS5003;70055;39.436;-77.514;2023-06-24T07:01:56;10;10;
80692;PMS5003;70055;39.436;-77.514;2023-06-24T07:04:24;10;10;
80692;PMS5003;70055;39.436;-77.514;2023-06-24T07:54:24;8;7;
80692;PMS5003;70055;39.436;-77.514;2023-06-24T07:56:52;6;6;
80692;PMS5003;70055;39.436;-77.514;2023-06-24T07:59:19;7;7;
80692;PMS5003;70055;39.436;-77.514;2023-06-24T08:01:45;11;10;
80692;PMS5003;70055;39.436;-77.514;2023-06-24T08:04:14;9;9;
80692;PMS5003;70055;39.436;-77.514;2023-06-24T08:06:41;10;10;
80692;PMS5003;70055;39.436;-77.514;2023-06-24T08:09:09;10;10;
80692;PMS5003;70055;39.436;-77.514;2023-06-24T08:11:37;9;9;
80692;PMS5003;70055;39.436;-77.514;2023-06-24T08:14:04;10;10;
80692;PMS5003;70055;39.436;-77.514;2023-06-24T08:16:32;12;12;
80692;PMS5003;70055;39.436;-77.514;2023-06-24T08:19:00;11;11;
80692;PMS5003;70055;39.436;-77.514;2023-06-24T08:21:28;10;10;
80692;PMS5003;70055;39.436;-77.514;2023-06-24T08:23:57;8;8;
80692;PMS5003;70055;39.436;-77.514;2023-06-24T08:26:25;7;7;
80692;PMS5003;70055;39.436;-77.514;2023-06-24T08:28:52;9;9;
80692;PMS5003;70055;39.436;-77.514;2023-06-24T08:31:20;9;9;
80692;PMS5003;70055;39.436;-77.514;2023-06-24T08:33:49;8;8;
80692;PMS5003;70055;39.436;-77.514;2023-06-24T08:36:21;8;8;
80692;PMS5003;70055;39.436;-77.514;2023-06-24T08:38:50;8;7;
80692;PMS5003;70055;39.436;-77.514;2023-06-24T08:41:17;10;10;
80692;PMS5003;70055;39.436;-77.514;2023-06-24T08:43:45;11;9;
80692;PMS5003;70055;39.436;-77.514;2023-06-24T08:46:13;11;11;
80692;PMS5003;70055;39.436;-77.514;2023-06-24T08:48:44;7;7;
80692;PMS5003;70055;39.436;-77.514;2023-06-24T08:51:15;9;8;
80692;PMS5003;70055;39.436;-77.514;2023-06-24T08:53:48;5;5;
80692;PMS5003;70055;39.436;-77.514;2023-06-24T09:25:55;4;4;
80692;PMS5003;70055;39.436;-77.514;2023-06-24T09:28:22;4;4;
80692;PMS5003;70055;39.436;-77.514;2023-06-24T09:31:03;3;3;
80692;PMS5003;70055;39.436;-77.514;2023-06-24T09:33:31;2;2;
80692;PMS5003;70055;39.436;-77.514;2023-06-24T09:36:02;3;2;
80692;PMS5003;70055;39.436;-77.514;2023-06-24T09:38:32;3;3;
80692;PMS5003;70055;39.436;-77.514;2023-06-24T09:41:02;3;3;
80692;PMS5003;70055;39.436;-77.514;2023-06-24T09:43:31;1;1;
80692;PMS5003;70055;39.436;-77.514;2023-06-24T09:46:02;3;3;
80692;PMS5003;70055;39.436;-77.514;2023-06-24T09:48:30;3;3;
80692;PMS5003;70055;39.436;-77.514;2023-06-24T09:51:00;2;2;
80692;PMS5003;70055;39.436;-77.514;2023-06-24T09:53:29;2;2;
80692;PMS5003;70055;39.436;-77.514;2023-06-24T09:55:59;3;2;
80692;PMS5003;70055;39.436;-77.514;2023-06-24T09:58:28;1;1;
80692;PMS5003;70055;39.436;-77.514;2023-06-24T10:01:00;3;2;
80692;PMS5003;70055;39.436;-77.514;2023-06-24T10:03:30;2;2;
80692;PMS5003;70055;39.436;-77.514;2023-06-24T10:06:01;2;2;
80692;PMS5003;70055;39.436;-77.514;2023-06-24T10:08:31;2;2;
80692;PMS5003;70055;39.436;-77.514;2023-06-24T10:11:00;2;2;
80692;PMS5003;70055;39.436;-77.514;2023-06-24T10:13:28;3;3;
80692;PMS5003;70055;39.436;-77.514;2023-06-24T10:15:56;2;2;
80692;PMS5003;70055;39.436;-77.514;2023-06-24T10:18:32;2;1;
80692;PMS5003;70055;39.436;-77.514;2023-06-24T10:21:01;0;0;
80692;PMS5003;70055;39.436;-77.514;2023-06-24T10:23:30;1;1;
80692;PMS5003;70055;39.436;-77.514;2023-06-24T10:43:00;1;1;
80692;PMS5003;70055;39.436;-77.514;2023-06-24T10:45:27;3;3;
80692;PMS5003;70055;39.436;-77.514;2023-06-24T10:47:56;2;2;
80692;PMS5003;70055;39.436;-77.514;2023-06-24T10:50:24;1;1;
80692;PMS5003;70055;39.436;-77.514;2023-06-24T10:52:52;1;1;
80692;PMS5003;70055;39.436;-77.514;2023-06-24T10:55:22;3;3;
80692;PMS5003;70055;39.436;-77.514;2023-06-24T10:57:52;3;3;
80692;PMS5003;70055;39.436;-77.514;2023-06-24T11:00:21;4;3;
80692;PMS5003;70055;39.436;-77.514;2023-06-24T11:02:48;2;2;
80692;PMS5003;70055;39.436;-77.514;2023-06-24T11:05:17;2;2;
80692;PMS5003;70055;39.436;-77.514;2023-06-24T11:07:45;3;3;
80692;PMS5003;70055;39.436;-77.514;2023-06-24T11:10:14;2;2;
80692;PMS5003;70055;39.436;-77.514;2023-06-24T11:12:42;2;2;
80692;PMS5003;70055;39.436;-77.514;2023-06-24T11:15:11;3;3;
80692;PMS5003;70055;39.436;-77.514;2023-06-24T11:17:39;3;3;
80692;PMS5003;70055;39.436;-77.514;2023-06-24T11:20:08;2;2;
80692;PMS5003;70055;39.436;-77.514;2023-06-24T11:22:37;2;2;
80692;PMS5003;70055;39.436;-77.514;2023-06-24T11:25:13;3;3;
80692;PMS5003;70055;39.436;-77.514;2023-06-24T11:27:42;3;3;
80692;PMS5003;70055;39.436;-77.514;2023-06-24T11:30:11;3;3;
80692;PMS5003;70055;39.436;-77.514;2023-06-24T11:32:41;2;2;
80692;PMS5003;70055;39.436;-77.514;2023-06-24T11:35:10;3;3;
80692;PMS5003;70055;39.436;-77.514;2023-06-24T11:37:41;2;2;
80692;PMS5003;70055;39.436;-77.514;2023-06-24T11:40:10;3;3;
80692;PMS5003;70055;39.436;-77.514;2023-06-24T11:56:14;2;2;
80692;PMS5003;70055;39.436;-77.514;2023-06-24T11:58:43;3;3;
80692;PMS5003;70055;39.436;-77.514;2023-06-24T12:01:12;6;5;
80692;PMS5003;70055;39.436;-77.514;2023-06-24T12:03:41;8;7;
80692;PMS5003;70055;39.436;-77.514;2023-06-24T12:06:09;7;7;
80692;PMS5003;70055;39.436;-77.514;2023-06-24T12:08:37;11;11;
80692;PMS5003;70055;39.436;-77.514;2023-06-24T12:11:05;14;12;
80692;PMS5003;70055;39.436;-77.514;2023-06-24T12:13:33;14;13;
80692;PMS5003;70055;39.436;-77.514;2023-06-24T12:16:01;15;14;
80692;PMS5003;70055;39.436;-77.514;2023-06-24T12:18:29;12;11;
80692;PMS5003;70055;39.436;-77.514;2023-06-24T12:20:57;11;10;
80692;PMS5003;70055;39.436;-77.514;2023-06-24T12:23:24;12;11;
80692;PMS5003;70055;39.436;-77.514;2023-06-24T12:25:52;12;12;
80692;PMS5003;70055;39.436;-77.514;2023-06-24T12:28:20;10;10;
80692;PMS5003;70055;39.436;-77.514;2023-06-24T12:30:49;12;11;
80692;PMS5003;70055;39.436;-77.514;2023-06-24T12:33:18;12;12;
80692;PMS5003;70055;39.436;-77.514;2023-06-24T12:35:45;14;13;
80692;PMS5003;70055;39.436;-77.514;2023-06-24T12:38:14;12;12;
80692;PMS5003;70055;39.436;-77.514;2023-06-24T12:40:41;11;11;
80692;PMS5003;70055;39.436;-77.514;2023-06-24T12:43:10;9;9;
80692;PMS5003;70055;39.436;-77.514;2023-06-24T12:45:38;10;10;
80692;PMS5003;70055;39.436;-77.514;2023-06-24T12:48:07;11;10;
80692;PMS5003;70055;39.436;-77.514;2023-06-24T12:50:35;15;14;
80692;PMS5003;70055;39.436;-77.514;2023-06-24T12:53:03;13;13;
80692;PMS5003;70055;39.436;-77.514;2023-06-24T12:55:32;17;14;
80692;PMS5003;70055;39.436;-77.514;2023-06-24T13:50:36;15;14;
80692;PMS5003;70055;39.436;-77.514;2023-06-24T13:53:03;16;16;
80692;PMS5003;70055;39.436;-77.514;2023-06-24T13:55:31;14;14;
80692;PMS5003;70055;39.436;-77.514;2023-06-24T13:57:58;12;12;
80692;PMS5003;70055;39.436;-77.514;2023-06-24T14:00:26;11;11;
80692;PMS5003;70055;39.436;-77.514;2023-06-24T14:02:53;9;9;
80692;PMS5003;70055;39.436;-77.514;2023-06-24T14:05:20;9;8;
80692;PMS5003;70055;39.436;-77.514;2023-06-24T14:07:49;7;7;
80692;PMS5003;70055;39.436;-77.514;2023-06-24T14:10:17;9;9;
80692;PMS5003;70055;39.436;-77.514;2023-06-24T14:12:45;10;10;
80692;PMS5003;70055;39.436;-77.514;2023-06-24T14:15:12;11;10;
80692;PMS5003;70055;39.436;-77.514;2023-06-24T14:17:41;9;9;
80692;PMS5003;70055;39.436;-77.514;2023-06-24T14:20:09;9;9;
80692;PMS5003;70055;39.436;-77.514;2023-06-24T14:22:38;11;11;
80692;PMS5003;70055;39.436;-77.514;2023-06-24T14:25:06;11;11;
80692;PMS5003;70055;39.436;-77.514;2023-06-24T14:27:34;9;9;
80692;PMS5003;70055;39.436;-77.514;2023-06-24T14:30:02;10;10;
80692;PMS5003;70055;39.436;-77.514;2023-06-24T14:32:31;8;8;
80692;PMS5003;70055;39.436;-77.514;2023-06-24T14:34:59;9;9;
80692;PMS5003;70055;39.436;-77.514;2023-06-24T14:37:27;10;9;
80692;PMS5003;70055;39.436;-77.514;2023-06-24T14:39:55;8;8;
80692;PMS5003;70055;39.436;-77.514;2023-06-24T14:42:23;8;8;
80692;PMS5003;70055;39.436;-77.514;2023-06-24T14:44:50;8;8;
80692;PMS5003;70055;39.436;-77.514;2023-06-24T14:47:19;8;8;
80692;PMS5003;70055;39.436;-77.514;2023-06-24T14:49:47;10;9;
80692;PMS5003;70055;39.436;-77.514;2023-06-24T14:58:01;9;9;
80692;PMS5003;70055;39.436;-77.514;2023-06-24T15:00:30;8;8;
80692;PMS5003;70055;39.436;-77.514;2023-06-24T15:02:58;10;10;
80692;PMS5003;70055;39.436;-77.514;2023-06-24T15:05:26;8;8;
80692;PMS5003;70055;39.436;-77.514;2023-06-24T15:07:55;8;8;
80692;PMS5003;70055;39.436;-77.514;2023-06-24T15:10:23;10;10;
80692;PMS5003;70055;39.436;-77.514;2023-06-24T15:12:51;9;9;
80692;PMS5003;70055;39.436;-77.514;2023-06-24T15:15:19;9;9;
80692;PMS5003;70055;39.436;-77.514;2023-06-24T15:17:47;9;9;
80692;PMS5003;70055;39.436;-77.514;2023-06-24T15:20:15;8;8;
80692;PMS5003;70055;39.436;-77.514;2023-06-24T15:22:42;8;8;
80692;PMS5003;70055;39.436;-77.514;2023-06-24T15:25:11;10;10;
80692;PMS5003;70055;39.436;-77.514;2023-06-24T15:27:39;10;10;
80692;PMS5003;70055;39.436;-77.514;2023-06-24T15:30:08;9;9;
80692;PMS5003;70055;39.436;-77.514;2023-06-24T15:32:36;9;9;
80692;PMS5003;70055;39.436;-77.514;2023-06-24T15:35:04;10;10;
80692;PMS5003;70055;39.436;-77.514;2023-06-24T15:37:33;10;9;
80692;PMS5003;70055;39.436;-77.514;2023-06-24T15:40:00;10;10;
80692;PMS5003;70055;39.436;-77.514;2023-06-24T15:42:28;8;8;
80692;PMS5003;70055;39.436;-77.514;2023-06-24T15:44:56;9;9;
80692;PMS5003;70055;39.436;-77.514;2023-06-24T15:47:24;10;10;
80692;PMS5003;70055;39.436;-77.514;2023-06-24T15:49:52;10;10;
80692;PMS5003;70055;39.436;-77.514;2023-06-24T15:52:20;10;10;
80692;PMS5003;70055;39.436;-77.514;2023-06-24T15:54:49;10;10;
80692;PMS5003;70055;39.436;-77.514;2023-06-24T15:57:18;6;6;
80692;PMS5003;70055;39.436;-77.514;2023-06-24T16:09:04;9;9;
80692;PMS5003;70055;39.436;-77.514;2023-06-24T16:11:30;10;10;
80692;PMS5003;70055;39.436;-77.514;2023-06-24T16:13:59;8;8;
80692;PMS5003;70055;39.436;-77.514;2023-06-24T16:16:27;9;9;
80692;PMS5003;70055;39.436;-77.514;2023-06-24T16:18:56;7;7;
80692;PMS5003;70055;39.436;-77.514;2023-06-24T16:21:24;6;6;
80692;PMS5003;70055;39.436;-77.514;2023-06-24T16:23:52;10;10;
80692;PMS5003;70055;39.436;-77.514;2023-06-24T16:26:20;8;8;
80692;PMS5003;70055;39.436;-77.514;2023-06-24T16:28:48;7;7;
80692;PMS5003;70055;39.436;-77.514;2023-06-24T16:31:16;6;6;
80692;PMS5003;70055;39.436;-77.514;2023-06-24T16:33:44;8;8;
80692;PMS5003;70055;39.436;-77.514;2023-06-24T16:36:12;10;10;
80692;PMS5003;70055;39.436;-77.514;2023-06-24T16:38:40;8;7;
80692;PMS5003;70055;39.436;-77.514;2023-06-24T16:41:09;9;9;
80692;PMS5003;70055;39.436;-77.514;2023-06-24T16:43:38;9;9;
80692;PMS5003;70055;39.436;-77.514;2023-06-24T16:46:06;10;10;
80692;PMS5003;70055;39.436;-77.514;2023-06-24T16:48:34;10;10;
80692;PMS5003;70055;39.436;-77.514;2023-06-24T16:51:02;7;7;
80692;PMS5003;70055;39.436;-77.514;2023-06-24T16:53:30;7;7;
80692;PMS5003;70055;39.436;-77.514;2023-06-24T16:55:59;8;8;
80692;PMS5003;70055;39.436;-77.514;2023-06-24T16:58:26;9;9;
80692;PMS5003;70055;39.436;-77.514;2023-06-24T17:00:55;8;8;
80692;PMS5003;70055;39.436;-77.514;2023-06-24T17:03:22;6;6;
80692;PMS5003;70055;39.436;-77.514;2023-06-24T17:05:51;6;6;
80692;PMS5003;70055;39.436;-77.514;2023-06-24T17:08:19;8;7;
80692;PMS5003;70055;39.436;-77.514;2023-06-24T17:53:47;5;5;
80692;PMS5003;70055;39.436;-77.514;2023-06-24T17:56:14;5;5;
80692;PMS5003;70055;39.436;-77.514;2023-06-24T17:58:40;5;5;
80692;PMS5003;70055;39.436;-77.514;2023-06-24T18:01:08;5;5;
80692;PMS5003;70055;39.436;-77.514;2023-06-24T18:03:35;5;5;
80692;PMS5003;70055;39.436;-77.514;2023-06-24T18:06:04;7;7;
80692;PMS5003;70055;39.436;-77.514;2023-06-24T18:08:32;8;8;
80692;PMS5003;70055;39.436;-77.514;2023-06-24T18:11:00;6;6;
80692;PMS5003;70055;39.436;-77.514;2023-06-24T18:13:28;6;6;
80692;PMS5003;70055;39.436;-77.514;2023-06-24T18:15:56;7;7;
80692;PMS5003;70055;39.436;-77.514;2023-06-24T18:18:23;8;8;
80692;PMS5003;70055;39.436;-77.514;2023-06-24T18:20:51;7;7;
80692;PMS5003;70055;39.436;-77.514;2023-06-24T18:23:20;7;7;
80692;PMS5003;70055;39.436;-77.514;2023-06-24T18:25:48;8;8;
80692;PMS5003;70055;39.436;-77.514;2023-06-24T18:28:16;7;7;
80692;PMS5003;70055;39.436;-77.514;2023-06-24T18:30:44;6;6;
80692;PMS5003;70055;39.436;-77.514;2023-06-24T18:33:12;6;6;
80692;PMS5003;70055;39.436;-77.514;2023-06-24T18:35:39;5;5;
80692;PMS5003;70055;39.436;-77.514;2023-06-24T18:38:07;8;8;
80692;PMS5003;70055;39.436;-77.514;2023-06-24T18:40:35;7;7;
80692;PMS5003;70055;39.436;-77.514;2023-06-24T18:43:04;7;7;
80692;PMS5003;70055;39.436;-77.514;2023-06-24T18:45:31;6;6;
80692;PMS5003;70055;39.436;-77.514;2023-06-24T18:47:59;7;7;
80692;PMS5003;70055;39.436;-77.514;2023-06-24T18:50:27;6;6;
80692;PMS5003;70055;39.436;-77.514;2023-06-24T18:52:55;7;7;
80692;PMS5003;70055;39.436;-77.514;2023-06-24T19:56:34;7;7;
80692;PMS5003;70055;39.436;-77.514;2023-06-24T19:59:01;5;5;
80692;PMS5003;70055;39.436;-77.514;2023-06-24T20:01:29;2;2;
80692;PMS5003;70055;39.436;-77.514;2023-06-24T20:03:56;3;3;
80692;PMS5003;70055;39.436;-77.514;2023-06-24T20:06:23;2;2;
80692;PMS5003;70055;39.436;-77.514;2023-06-24T20:08:50;3;3;
80692;PMS5003;70055;39.436;-77.514;2023-06-24T20:11:17;4;4;
80692;PMS5003;70055;39.436;-77.514;2023-06-24T20:13:45;4;4;
80692;PMS5003;70055;39.436;-77.514;2023-06-24T20:16:15;2;2;
80692;PMS5003;70055;39.436;-77.514;2023-06-24T20:18:43;3;3;
80692;PMS5003;70055;39.436;-77.514;2023-06-24T20:21:11;3;3;
80692;PMS5003;70055;39.436;-77.514;2023-06-24T20:23:39;4;4;
80692;PMS5003;70055;39.436;-77.514;2023-06-24T20:26:08;2;2;
80692;PMS5003;70055;39.436;-77.514;2023-06-24T20:28:36;3;3;
80692;PMS5003;70055;39.436;-77.514;2023-06-24T20:31:04;2;2;
80692;PMS5003;70055;39.436;-77.514;2023-06-24T20:33:32;4;4;
80692;PMS5003;70055;39.436;-77.514;2023-06-24T20:36:00;3;2;
80692;PMS5003;70055;39.436;-77.514;2023-06-24T20:38:28;3;3;
80692;PMS5003;70055;39.436;-77.514;2023-06-24T20:40:57;4;4;
80692;PMS5003;70055;39.436;-77.514;2023-06-24T20:43:25;5;4;
80692;PMS5003;70055;39.436;-77.514;2023-06-24T20:45:53;2;2;
80692;PMS5003;70055;39.436;-77.514;2023-06-24T20:48:22;3;3;
80692;PMS5003;70055;39.436;-77.514;2023-06-24T20:50:51;3;3;
80692;PMS5003;70055;39.436;-77.514;2023-06-24T20:53:18;5;4;
80692;PMS5003;70055;39.436;-77.514;2023-06-24T20:55:47;4;4;
80692;PMS5003;70055;39.436;-77.514;2023-06-24T21:01:39;4;4;
80692;PMS5003;70055;39.436;-77.514;2023-06-24T21:04:07;1;1;
80692;PMS5003;70055;39.436;-77.514;2023-06-24T21:06:35;2;2;
80692;PMS5003;70055;39.436;-77.514;2023-06-24T21:09:04;3;3;
80692;PMS5003;70055;39.436;-77.514;2023-06-24T21:11:32;3;3;
80692;PMS5003;70055;39.436;-77.514;2023-06-24T21:14:01;4;4;
80692;PMS5003;70055;39.436;-77.514;2023-06-24T21:16:29;3;3;
80692;PMS5003;70055;39.436;-77.514;2023-06-24T21:18:56;3;3;
80692;PMS5003;70055;39.436;-77.514;2023-06-24T21:21:24;4;4;
80692;PMS5003;70055;39.436;-77.514;2023-06-24T21:23:52;4;4;
80692;PMS5003;70055;39.436;-77.514;2023-06-24T21:26:19;4;4;
80692;PMS5003;70055;39.436;-77.514;2023-06-24T21:28:48;3;3;
80692;PMS5003;70055;39.436;-77.514;2023-06-24T21:31:16;4;4;
80692;PMS5003;70055;39.436;-77.514;2023-06-24T21:33:44;4;4;
80692;PMS5003;70055;39.436;-77.514;2023-06-24T21:36:13;5;5;
80692;PMS5003;70055;39.436;-77.514;2023-06-24T21:38:43;2;2;